sensor_id;sensor_type;location;lat;lon;timestamp;pressure;altitude;pressure_sealevel;temperature;humidity
11912;BME280;6016;41.928;25.556;2022-11-20T00:00:19;98708.06;;;18.27;86.35
11912;BME280;6016;41.928;25.556;2022-11-20T00:02:46;98081.19;;;14.40;85.73
11912;BME280;6016;41.928;25.556;2022-11-20T00:05:13;98068.78;;;14.41;84.68
11912;BME280;6016;41.928;25.556;2022-11-20T00:07:41;98700.28;;;18.32;85.32
11912;BME280;6016;41.928;25.556;2022-11-20T00:10:08;98706.66;;;18.38;84.79
11912;BME280;6016;41.928;25.556;2022-11-20T00:12:35;98664.06;;;18.09;84.74
11912;BME280;6016;41.928;25.556;2022-11-20T00:15:02;98664.88;;;18.10;84.51
11912;BME280;6016;41.928;25.556;2022-11-20T00:17:29;98722.50;;;18.39;84.92
11912;BME280;6016;41.928;25.556;2022-11-20T00:19:56;98712.66;;;18.40;84.98
11912;BME280;6016;41.928;25.556;2022-11-20T00:22:23;98712.22;;;18.36;84.58
11912;BME280;6016;41.928;25.556;2022-11-20T00:24:51;98469.69;;;16.67;84.85
11912;BME280;6016;41.928;25.556;2022-11-20T00:27:18;98714.47;;;18.33;85.01
11912;BME280;6016;41.928;25.556;2022-11-20T00:29:45;98707.44;;;18.25;85.05
11912;BME280;6016;41.928;25.556;2022-11-20T00:32:11;98714.47;;;18.33;84.39
11912;BME280;6016;41.928;25.556;2022-11-20T00:34:38;98703.59;;;18.34;84.75
11912;BME280;6016;41.928;25.556;2022-11-20T00:37:05;98698.44;;;18.39;83.89
11912;BME280;6016;41.928;25.556;2022-11-20T00:39:32;98703.97;;;18.38;84.22
11912;BME280;6016;41.928;25.556;2022-11-20T00:42:00;98687.78;;;18.39;83.44
11912;BME280;6016;41.928;25.556;2022-11-20T00:44:27;98687.38;;;18.42;81.84
11912;BME280;6016;41.928;25.556;2022-11-20T00:46:54;98690.84;;;18.36;83.16
11912;BME280;6016;41.928;25.556;2022-11-20T00:49:21;98621.63;;;17.86;82.75
11912;BME280;6016;41.928;25.556;2022-11-20T00:51:47;98687.38;;;18.42;81.86
11912;BME280;6016;41.928;25.556;2022-11-20T00:54:14;98571.13;;;17.78;81.86
11912;BME280;6016;41.928;25.556;2022-11-20T00:56:41;98490.13;;;17.30;81.40
11912;BME280;6016;41.928;25.556;2022-11-20T00:59:10;98648.72;;;18.25;81.75
11912;BME280;6016;41.928;25.556;2022-11-20T01:01:37;98655.88;;;18.24;81.69
11912;BME280;6016;41.928;25.556;2022-11-20T01:04:04;98671.94;;;18.38;81.69
11912;BME280;6016;41.928;25.556;2022-11-20T01:06:33;98693.16;;;18.53;81.49
11912;BME280;6016;41.928;25.556;2022-11-20T01:09:02;98686.78;;;18.54;81.58
11912;BME280;6016;41.928;25.556;2022-11-20T01:11:31;98642.94;;;18.21;81.48
11912;BME280;6016;41.928;25.556;2022-11-20T01:13:59;98693.38;;;18.58;80.89
11912;BME280;6016;41.928;25.556;2022-11-20T01:16:30;98696.66;;;18.53;81.63
11912;BME280;6016;41.928;25.556;2022-11-20T01:18:59;98700.97;;;18.54;82.17
11912;BME280;6016;41.928;25.556;2022-11-20T01:21:28;98704.88;;;18.59;81.70
11912;BME280;6016;41.928;25.556;2022-11-20T01:23:55;98630.19;;;18.10;81.32
11912;BME280;6016;41.928;25.556;2022-11-20T01:26:24;98677.72;;;18.41;81.76
11912;BME280;6016;41.928;25.556;2022-11-20T01:28:53;98697.47;;;18.54;81.60
11912;BME280;6016;41.928;25.556;2022-11-20T01:31:23;98608.94;;;17.95;81.68
11912;BME280;6016;41.928;25.556;2022-11-20T01:33:53;98685.97;;;18.47;80.66
11912;BME280;6016;41.928;25.556;2022-11-20T01:36:21;98696.41;;;18.41;81.71
11912;BME280;6016;41.928;25.556;2022-11-20T01:38:50;98656.13;;;18.30;81.86
11912;BME280;6016;41.928;25.556;2022-11-20T01:41:17;98679.59;;;18.54;81.39
11912;BME280;6016;41.928;25.556;2022-11-20T01:43:58;98694.19;;;18.59;80.97
11912;BME280;6016;41.928;25.556;2022-11-20T01:46:25;98697.06;;;18.57;80.89
11912;BME280;6016;41.928;25.556;2022-11-20T01:48:57;98700.75;;;18.56;80.72
11912;BME280;6016;41.928;25.556;2022-11-20T01:51:29;98697.69;;;18.52;81.23
11912;BME280;6016;41.928;25.556;2022-11-20T01:54:01;98546.38;;;17.49;80.86
11912;BME280;6016;41.928;25.556;2022-11-20T01:56:30;98665.31;;;18.20;81.28
11912;BME280;6016;41.928;25.556;2022-11-20T01:59:01;98689.59;;;18.32;81.91
11912;BME280;6016;41.928;25.556;2022-11-20T02:01:28;98695.00;;;18.46;81.70
11912;BME280;6016;41.928;25.556;2022-11-20T02:03:58;98694.38;;;18.50;81.08
11912;BME280;6016;41.928;25.556;2022-11-20T02:06:28;98616.34;;;17.99;81.75
11912;BME280;6016;41.928;25.556;2022-11-20T02:08:55;98690.88;;;18.43;81.67
11912;BME280;6016;41.928;25.556;2022-11-20T02:11:22;98705.25;;;18.42;81.25
11912;BME280;6016;41.928;25.556;2022-11-20T02:13:49;98678.53;;;18.42;80.76
11912;BME280;6016;41.928;25.556;2022-11-20T02:16:20;98642.50;;;18.11;80.68
11912;BME280;6016;41.928;25.556;2022-11-20T02:18:47;98686.75;;;18.40;80.79
11912;BME280;6016;41.928;25.556;2022-11-20T02:21:34;98688.41;;;18.48;80.18
11912;BME280;6016;41.928;25.556;2022-11-20T02:24:09;98620.34;;;18.10;80.51
11912;BME280;6016;41.928;25.556;2022-11-20T02:26:44;98646.03;;;18.25;80.25
11912;BME280;6016;41.928;25.556;2022-11-20T02:29:14;98684.06;;;18.40;80.94
11912;BME280;6016;41.928;25.556;2022-11-20T02:31:43;98688.00;;;18.51;80.51
11912;BME280;6016;41.928;25.556;2022-11-20T02:34:10;98683.91;;;18.49;80.59
11912;BME280;6016;41.928;25.556;2022-11-20T02:36:39;98663.75;;;18.39;80.55
11912;BME280;6016;41.928;25.556;2022-11-20T02:39:09;98681.22;;;18.49;80.99
11912;BME280;6016;41.928;25.556;2022-11-20T02:41:38;98679.97;;;18.45;80.58
11912;BME280;6016;41.928;25.556;2022-11-20T02:44:05;98624.06;;;18.16;80.77
11912;BME280;6016;41.928;25.556;2022-11-20T02:46:33;98671.16;;;18.51;79.98
11912;BME280;6016;41.928;25.556;2022-11-20T02:49:01;98668.91;;;18.48;79.98
11912;BME280;6016;41.928;25.556;2022-11-20T02:51:28;98671.75;;;18.46;80.81
11912;BME280;6016;41.928;25.556;2022-11-20T02:53:55;98662.09;;;18.38;81.25
11912;BME280;6016;41.928;25.556;2022-11-20T02:56:23;98643.81;;;18.35;80.52
11912;BME280;6016;41.928;25.556;2022-11-20T02:58:51;98657.56;;;18.39;80.82
11912;BME280;6016;41.928;25.556;2022-11-20T03:01:17;98648.13;;;18.43;80.81
11912;BME280;6016;41.928;25.556;2022-11-20T03:03:44;98605.13;;;18.11;80.21
11912;BME280;6016;41.928;25.556;2022-11-20T03:06:14;98652.47;;;18.44;80.75
11912;BME280;6016;41.928;25.556;2022-11-20T03:08:40;98601.09;;;17.80;80.83
11912;BME280;6016;41.928;25.556;2022-11-20T03:11:08;98554.69;;;17.67;80.85
11912;BME280;6016;41.928;25.556;2022-11-20T03:13:36;98569.50;;;17.77;80.96
11912;BME280;6016;41.928;25.556;2022-11-20T03:16:10;98667.44;;;18.45;80.69
11912;BME280;6016;41.928;25.556;2022-11-20T03:18:38;98625.06;;;18.08;80.61
11912;BME280;6016;41.928;25.556;2022-11-20T03:21:05;98611.66;;;18.02;81.51
11912;BME280;6016;41.928;25.556;2022-11-20T03:23:33;98650.19;;;18.41;80.99
11912;BME280;6016;41.928;25.556;2022-11-20T03:26:11;98531.28;;;17.69;81.08
11912;BME280;6016;41.928;25.556;2022-11-20T03:28:40;98600.03;;;18.16;81.09
11912;BME280;6016;41.928;25.556;2022-11-20T03:31:08;98649.78;;;18.44;81.28
11912;BME280;6016;41.928;25.556;2022-11-20T03:33:35;98639.72;;;18.46;81.03
11912;BME280;6016;41.928;25.556;2022-11-20T03:36:03;98642.19;;;18.48;81.24
11912;BME280;6016;41.928;25.556;2022-11-20T03:38:30;98638.69;;;18.47;81.40
11912;BME280;6016;41.928;25.556;2022-11-20T03:40:59;98524.31;;;17.68;80.87
11912;BME280;6016;41.928;25.556;2022-11-20T03:43:27;98649.78;;;18.44;81.40
11912;BME280;6016;41.928;25.556;2022-11-20T03:45:55;98646.09;;;18.45;81.52
11912;BME280;6016;41.928;25.556;2022-11-20T03:48:23;98653.06;;;18.39;81.71
11912;BME280;6016;41.928;25.556;2022-11-20T03:50:50;98642.78;;;18.30;82.33
11912;BME280;6016;41.928;25.556;2022-11-20T03:53:17;98651.41;;;18.32;82.31
11912;BME280;6016;41.928;25.556;2022-11-20T03:55:45;98616.03;;;18.16;82.06
11912;BME280;6016;41.928;25.556;2022-11-20T03:58:16;98639.47;;;18.21;82.24
11912;BME280;6016;41.928;25.556;2022-11-20T04:00:43;98610.22;;;17.99;82.94
11912;BME280;6016;41.928;25.556;2022-11-20T04:03:11;98607.41;;;18.14;82.12
11912;BME280;6016;41.928;25.556;2022-11-20T04:05:38;98577.97;;;18.00;82.84
11912;BME280;6016;41.928;25.556;2022-11-20T04:08:05;98612.56;;;18.22;82.72
11912;BME280;6016;41.928;25.556;2022-11-20T04:10:32;98627.75;;;18.22;82.82
11912;BME280;6016;41.928;25.556;2022-11-20T04:12:59;98560.06;;;17.81;82.96
11912;BME280;6016;41.928;25.556;2022-11-20T04:15:26;98563.19;;;17.98;82.66
11912;BME280;6016;41.928;25.556;2022-11-20T04:17:54;98601.66;;;18.17;83.27
11912;BME280;6016;41.928;25.556;2022-11-20T04:20:22;98592.03;;;18.23;82.53
11912;BME280;6016;41.928;25.556;2022-11-20T04:22:49;98601.69;;;18.24;82.14
11912;BME280;6016;41.928;25.556;2022-11-20T04:25:19;98607.63;;;18.19;82.93
11912;BME280;6016;41.928;25.556;2022-11-20T04:27:46;98617.28;;;18.20;82.76
11912;BME280;6016;41.928;25.556;2022-11-20T04:30:13;98614.59;;;18.13;83.96
11912;BME280;6016;41.928;25.556;2022-11-20T04:32:40;98618.91;;;18.14;83.31
11912;BME280;6016;41.928;25.556;2022-11-20T04:35:07;98547.72;;;17.73;83.15
11912;BME280;6016;41.928;25.556;2022-11-20T04:37:35;98621.59;;;18.21;83.29
11912;BME280;6016;41.928;25.556;2022-11-20T04:40:02;98635.75;;;18.15;83.18
11912;BME280;6016;41.928;25.556;2022-11-20T04:42:29;98622.34;;;18.02;84.61
11912;BME280;6016;41.928;25.556;2022-11-20T04:44:57;98405.78;;;16.67;84.16
11912;BME280;6016;41.928;25.556;2022-11-20T04:47:23;98574.19;;;17.75;83.44
11912;BME280;6016;41.928;25.556;2022-11-20T04:49:50;98620.66;;;18.00;84.24
11912;BME280;6016;41.928;25.556;2022-11-20T04:52:17;98494.19;;;17.19;84.37
11912;BME280;6016;41.928;25.556;2022-11-20T04:54:45;98617.16;;;17.93;84.69
11912;BME280;6016;41.928;25.556;2022-11-20T04:57:13;98620.03;;;17.98;84.35
11912;BME280;6016;41.928;25.556;2022-11-20T04:59:41;98630.78;;;18.05;83.99
11912;BME280;6016;41.928;25.556;2022-11-20T05:02:08;98596.41;;;17.89;83.65
11912;BME280;6016;41.928;25.556;2022-11-20T05:04:35;98544.59;;;17.56;83.53
11912;BME280;6016;41.928;25.556;2022-11-20T05:07:01;98592.31;;;17.93;82.67
11912;BME280;6016;41.928;25.556;2022-11-20T05:09:29;98575.69;;;17.91;83.17
11912;BME280;6016;41.928;25.556;2022-11-20T05:11:57;98637.19;;;18.18;83.59
11912;BME280;6016;41.928;25.556;2022-11-20T05:14:24;98623.63;;;18.12;83.55
11912;BME280;6016;41.928;25.556;2022-11-20T05:16:51;98564.53;;;17.74;83.40
11912;BME280;6016;41.928;25.556;2022-11-20T05:19:17;98640.47;;;18.20;83.23
11912;BME280;6016;41.928;25.556;2022-11-20T05:21:44;98639.47;;;18.21;83.51
11912;BME280;6016;41.928;25.556;2022-11-20T05:24:11;98647.03;;;18.10;82.79
11912;BME280;6016;41.928;25.556;2022-11-20T05:26:38;98648.31;;;18.28;82.16
11912;BME280;6016;41.928;25.556;2022-11-20T05:29:06;98608.13;;;17.94;82.94
11912;BME280;6016;41.928;25.556;2022-11-20T05:31:33;98428.78;;;16.81;82.62
11912;BME280;6016;41.928;25.556;2022-11-20T05:34:01;98610.66;;;18.03;82.83
11912;BME280;6016;41.928;25.556;2022-11-20T05:36:30;98611.59;;;17.95;82.34
11912;BME280;6016;41.928;25.556;2022-11-20T05:38:57;98628.31;;;18.04;82.84
11912;BME280;6016;41.928;25.556;2022-11-20T05:41:24;98630.19;;;18.17;82.91
11912;BME280;6016;41.928;25.556;2022-11-20T05:43:51;98337.34;;;16.25;82.44
11912;BME280;6016;41.928;25.556;2022-11-20T05:46:20;98625.66;;;18.04;82.37
11912;BME280;6016;41.928;25.556;2022-11-20T05:48:47;98639.44;;;18.14;83.04
11912;BME280;6016;41.928;25.556;2022-11-20T05:51:16;98617.19;;;18.00;83.31
11912;BME280;6016;41.928;25.556;2022-11-20T05:53:43;98512.91;;;17.33;82.37
11912;BME280;6016;41.928;25.556;2022-11-20T05:56:11;98655.06;;;18.24;82.82
11912;BME280;6016;41.928;25.556;2022-11-20T05:58:39;98639.81;;;18.11;82.34
11912;BME280;6016;41.928;25.556;2022-11-20T06:01:07;98621.97;;;18.11;82.62
11912;BME280;6016;41.928;25.556;2022-11-20T06:03:40;98647.50;;;18.27;82.07
11912;BME280;6016;41.928;25.556;2022-11-20T06:06:08;98666.09;;;18.07;81.75
11912;BME280;6016;41.928;25.556;2022-11-20T06:08:35;98639.69;;;18.26;81.64
11912;BME280;6016;41.928;25.556;2022-11-20T06:11:05;98649.53;;;18.32;81.10
11912;BME280;6016;41.928;25.556;2022-11-20T06:13:32;98642.94;;;18.21;81.40
11912;BME280;6016;41.928;25.556;2022-11-20T06:15:59;98590.88;;;17.83;80.83
11912;BME280;6016;41.928;25.556;2022-11-20T06:18:27;98655.28;;;18.22;82.03
11912;BME280;6016;41.928;25.556;2022-11-20T06:21:04;98648.13;;;18.30;81.23
11912;BME280;6016;41.928;25.556;2022-11-20T06:23:32;98646.44;;;18.22;81.32
11912;BME280;6016;41.928;25.556;2022-11-20T06:26:01;98656.56;;;18.33;81.53
11912;BME280;6016;41.928;25.556;2022-11-20T06:28:29;98610.69;;;18.09;80.90
11912;BME280;6016;41.928;25.556;2022-11-20T06:30:55;98607.53;;;17.99;80.38
11912;BME280;6016;41.928;25.556;2022-11-20T06:33:22;98661.66;;;18.28;81.25
11912;BME280;6016;41.928;25.556;2022-11-20T06:35:49;98667.63;;;18.44;80.81
11912;BME280;6016;41.928;25.556;2022-11-20T06:38:17;98643.34;;;18.11;81.73
11912;BME280;6016;41.928;25.556;2022-11-20T06:40:44;98671.34;;;18.42;80.99
11912;BME280;6016;41.928;25.556;2022-11-20T06:43:11;98601.97;;;18.00;81.28
11912;BME280;6016;41.928;25.556;2022-11-20T06:45:38;98675.25;;;18.33;81.74
11912;BME280;6016;41.928;25.556;2022-11-20T06:48:05;98672.34;;;18.28;80.94
11912;BME280;6016;41.928;25.556;2022-11-20T06:50:32;98660.19;;;18.25;81.41
11912;BME280;6016;41.928;25.556;2022-11-20T06:53:00;98688.81;;;18.45;80.83
11912;BME280;6016;41.928;25.556;2022-11-20T06:55:29;98671.75;;;18.46;80.07
11912;BME280;6016;41.928;25.556;2022-11-20T06:57:56;98587.84;;;18.00;79.71
11912;BME280;6016;41.928;25.556;2022-11-20T07:00:23;98637.19;;;18.24;79.10
11912;BME280;6016;41.928;25.556;2022-11-20T07:02:50;98705.09;;;18.64;79.94
11912;BME280;6016;41.928;25.556;2022-11-20T07:05:17;98654.25;;;18.30;79.84
11912;BME280;6016;41.928;25.556;2022-11-20T07:07:44;98679.78;;;18.46;78.90
11912;BME280;6016;41.928;25.556;2022-11-20T07:10:11;98136.88;;;14.99;78.89
11912;BME280;6016;41.928;25.556;2022-11-20T07:12:39;98626.97;;;18.35;78.63
11912;BME280;6016;41.928;25.556;2022-11-20T07:15:07;98473.25;;;17.16;79.40
11912;BME280;6016;41.928;25.556;2022-11-20T07:17:33;98713.53;;;18.74;78.22
11912;BME280;6016;41.928;25.556;2022-11-20T07:20:00;98713.75;;;18.66;79.33
11912;BME280;6016;41.928;25.556;2022-11-20T07:22:27;98680.66;;;18.67;79.07
11912;BME280;6016;41.928;25.556;2022-11-20T07:24:54;98624.88;;;18.23;79.58
11912;BME280;6016;41.928;25.556;2022-11-20T07:27:21;98709.47;;;18.85;78.64
11912;BME280;6016;41.928;25.556;2022-11-20T07:29:49;98709.22;;;18.73;79.02
11912;BME280;6016;41.928;25.556;2022-11-20T07:32:16;98692.09;;;18.40;78.70
11912;BME280;6016;41.928;25.556;2022-11-20T07:34:43;98707.59;;;18.86;78.38
11912;BME280;6016;41.928;25.556;2022-11-20T07:37:09;98706.53;;;18.73;79.09
11912;BME280;6016;41.928;25.556;2022-11-20T07:39:36;98699.38;;;18.87;78.05
11912;BME280;6016;41.928;25.556;2022-11-20T07:42:03;98690.34;;;18.81;78.20
11912;BME280;6016;41.928;25.556;2022-11-20T07:44:30;98708.19;;;18.74;77.96
11912;BME280;6016;41.928;25.556;2022-11-20T07:46:58;98714.41;;;18.95;78.12
11912;BME280;6016;41.928;25.556;2022-11-20T07:49:25;98693.63;;;18.90;77.38
11912;BME280;6016;41.928;25.556;2022-11-20T07:51:52;98690.09;;;18.83;77.85
11912;BME280;6016;41.928;25.556;2022-11-20T07:54:19;98670.59;;;18.69;77.15
11912;BME280;6016;41.928;25.556;2022-11-20T07:56:46;98696.09;;;18.85;77.25
11912;BME280;6016;41.928;25.556;2022-11-20T07:59:13;98679.44;;;18.90;77.48
11912;BME280;6016;41.928;25.556;2022-11-20T08:01:41;98707.84;;;18.97;77.53
11912;BME280;6016;41.928;25.556;2022-11-20T08:04:09;98677.41;;;18.92;77.53
11912;BME280;6016;41.928;25.556;2022-11-20T08:06:36;98661.75;;;18.95;77.11
11912;BME280;6016;41.928;25.556;2022-11-20T08:09:03;98681.13;;;19.18;76.54
11912;BME280;6016;41.928;25.556;2022-11-20T08:11:30;98646.53;;;18.76;76.86
11912;BME280;6016;41.928;25.556;2022-11-20T08:14:14;98698.81;;;19.05;77.18
11912;BME280;6016;41.928;25.556;2022-11-20T08:16:42;98674.09;;;18.90;76.25
11912;BME280;6016;41.928;25.556;2022-11-20T08:19:11;98712.78;;;19.14;75.51
11912;BME280;6016;41.928;25.556;2022-11-20T08:21:38;98708.25;;;19.08;76.26
11912;BME280;6016;41.928;25.556;2022-11-20T08:24:05;98626.59;;;18.65;75.35
11912;BME280;6016;41.928;25.556;2022-11-20T08:26:32;98699.22;;;19.29;74.96
11912;BME280;6016;41.928;25.556;2022-11-20T08:28:59;98689.94;;;19.32;74.83
11912;BME280;6016;41.928;25.556;2022-11-20T08:31:27;98695.53;;;19.30;74.76
11912;BME280;6016;41.928;25.556;2022-11-20T08:33:54;98590.63;;;18.74;74.61
11912;BME280;6016;41.928;25.556;2022-11-20T08:36:23;98686.88;;;19.28;75.10
11912;BME280;6016;41.928;25.556;2022-11-20T08:38:51;98656.66;;;19.21;74.17
11912;BME280;6016;41.928;25.556;2022-11-20T08:41:18;98660.34;;;19.26;74.85
11912;BME280;6016;41.928;25.556;2022-11-20T08:43:54;98661.38;;;19.32;74.42
11912;BME280;6016;41.928;25.556;2022-11-20T08:46:21;98586.53;;;18.85;74.48
11912;BME280;6016;41.928;25.556;2022-11-20T08:48:48;98639.78;;;19.14;74.29
11912;BME280;6016;41.928;25.556;2022-11-20T08:51:16;98630.06;;;19.39;74.28
11912;BME280;6016;41.928;25.556;2022-11-20T08:53:45;98574.81;;;19.00;74.09
11912;BME280;6016;41.928;25.556;2022-11-20T08:56:14;98582.84;;;19.06;73.54
11912;BME280;6016;41.928;25.556;2022-11-20T08:58:41;98635.63;;;19.45;74.36
11912;BME280;6016;41.928;25.556;2022-11-20T09:01:09;98623.47;;;19.49;73.99
11912;BME280;6016;41.928;25.556;2022-11-20T09:03:37;98594.97;;;19.16;73.33
11912;BME280;6016;41.928;25.556;2022-11-20T09:06:05;98636.03;;;19.48;73.71
11912;BME280;6016;41.928;25.556;2022-11-20T09:08:33;98596.34;;;19.25;73.20
11912;BME280;6016;41.928;25.556;2022-11-20T09:11:03;98662.38;;;19.45;73.29
11912;BME280;6016;41.928;25.556;2022-11-20T09:13:30;98644.28;;;19.26;74.95
11912;BME280;6016;41.928;25.556;2022-11-20T09:15:59;98642.44;;;19.40;74.26
11912;BME280;6016;41.928;25.556;2022-11-20T09:18:28;98644.06;;;19.48;73.88
11912;BME280;6016;41.928;25.556;2022-11-20T09:20:57;98659.50;;;19.53;73.62
11912;BME280;6016;41.928;25.556;2022-11-20T09:23:24;98595.75;;;19.23;72.65
11912;BME280;6016;41.928;25.556;2022-11-20T09:25:51;98640.50;;;19.61;72.82
11912;BME280;6016;41.928;25.556;2022-11-20T09:28:22;98651.44;;;19.66;72.94
11912;BME280;6016;41.928;25.556;2022-11-20T09:30:48;98646.22;;;19.78;71.72
11912;BME280;6016;41.928;25.556;2022-11-20T09:33:15;98646.88;;;19.67;72.34
11912;BME280;6016;41.928;25.556;2022-11-20T09:35:43;98611.69;;;19.63;71.76
11912;BME280;6016;41.928;25.556;2022-11-20T09:38:10;98629.75;;;19.81;71.88
11912;BME280;6016;41.928;25.556;2022-11-20T09:40:40;98590.88;;;19.65;71.15
11912;BME280;6016;41.928;25.556;2022-11-20T09:43:12;98621.88;;;20.00;71.78
11912;BME280;6016;41.928;25.556;2022-11-20T09:45:53;98637.28;;;20.12;71.45
11912;BME280;6016;41.928;25.556;2022-11-20T09:48:39;98620.81;;;20.08;71.62
11912;BME280;6016;41.928;25.556;2022-11-20T09:51:16;98582.53;;;20.01;70.04
11912;BME280;6016;41.928;25.556;2022-11-20T09:53:55;98407.84;;;19.09;70.12
11912;BME280;6016;41.928;25.556;2022-11-20T09:56:28;98551.63;;;20.05;70.19
11912;BME280;6016;41.928;25.556;2022-11-20T09:58:58;98617.97;;;20.67;68.76
11912;BME280;6016;41.928;25.556;2022-11-20T10:01:31;98573.22;;;20.42;68.64
11912;BME280;6016;41.928;25.556;2022-11-20T10:04:02;98615.47;;;20.72;68.94
11912;BME280;6016;41.928;25.556;2022-11-20T10:06:32;98629.22;;;20.83;68.14
11912;BME280;6016;41.928;25.556;2022-11-20T10:09:11;98620.34;;;20.82;67.98
11912;BME280;6016;41.928;25.556;2022-11-20T10:11:48;98609.41;;;20.84;67.79
11912;BME280;6016;41.928;25.556;2022-11-20T10:14:23;98637.16;;;20.96;66.96
11912;BME280;6016;41.928;25.556;2022-11-20T10:17:02;98632.38;;;20.98;67.14
11912;BME280;6016;41.928;25.556;2022-11-20T10:19:45;97928.91;;;16.62;67.33
11912;BME280;6016;41.928;25.556;2022-11-20T10:22:24;98635.56;;;21.14;66.63
11912;BME280;6016;41.928;25.556;2022-11-20T10:24:56;98609.03;;;21.05;66.43
11912;BME280;6016;41.928;25.556;2022-11-20T10:27:40;98603.09;;;20.97;67.51
11912;BME280;6016;41.928;25.556;2022-11-20T10:30:10;98632.19;;;21.44;66.74
11912;BME280;6016;41.928;25.556;2022-11-20T10:32:41;98630.75;;;21.41;66.45
11912;BME280;6016;41.928;25.556;2022-11-20T10:35:18;98617.50;;;21.65;64.90
11912;BME280;6016;41.928;25.556;2022-11-20T10:37:49;98624.00;;;21.57;65.49
11912;BME280;6016;41.928;25.556;2022-11-20T10:40:23;98594.88;;;21.54;65.01
11912;BME280;6016;41.928;25.556;2022-11-20T10:42:56;98425.50;;;20.57;64.82
11912;BME280;6016;41.928;25.556;2022-11-20T10:45:34;98613.41;;;21.81;64.80
11912;BME280;6016;41.928;25.556;2022-11-20T10:48:12;98544.50;;;21.38;64.06
11912;BME280;6016;41.928;25.556;2022-11-20T10:50:50;98597.06;;;21.64;64.61
11912;BME280;6016;41.928;25.556;2022-11-20T10:53:44;98600.13;;;21.68;65.22
11912;BME280;6016;41.928;25.556;2022-11-20T10:56:19;98579.16;;;21.58;64.15
11912;BME280;6016;41.928;25.556;2022-11-20T10:59:04;98612.53;;;21.69;64.76
11912;BME280;6016;41.928;25.556;2022-11-20T11:01:40;98584.19;;;21.73;64.00
11912;BME280;6016;41.928;25.556;2022-11-20T11:04:21;98568.53;;;21.70;63.91
11912;BME280;6016;41.928;25.556;2022-11-20T11:06:51;98573.69;;;22.02;63.47
11912;BME280;6016;41.928;25.556;2022-11-20T11:09:33;98567.75;;;22.12;62.24
11912;BME280;6016;41.928;25.556;2022-11-20T11:12:06;98560.06;;;22.15;63.04
11912;BME280;6016;41.928;25.556;2022-11-20T11:14:42;98547.56;;;22.09;63.43
11912;BME280;6016;41.928;25.556;2022-11-20T11:17:25;98377.78;;;21.03;63.08
11912;BME280;6016;41.928;25.556;2022-11-20T11:20:05;98462.00;;;21.52;63.55
11912;BME280;6016;41.928;25.556;2022-11-20T11:22:33;98483.97;;;21.91;62.86
11912;BME280;6016;41.928;25.556;2022-11-20T11:25:01;98525.72;;;22.17;62.29
11912;BME280;6016;41.928;25.556;2022-11-20T11:27:28;98508.72;;;21.93;62.20
11912;BME280;6016;41.928;25.556;2022-11-20T11:30:11;98458.97;;;21.90;62.05
11912;BME280;6016;41.928;25.556;2022-11-20T11:32:38;98507.63;;;22.25;61.94
11912;BME280;6016;41.928;25.556;2022-11-20T11:35:20;98495.31;;;22.05;61.87
11912;BME280;6016;41.928;25.556;2022-11-20T11:37:47;98488.09;;;22.05;62.52
11912;BME280;6016;41.928;25.556;2022-11-20T11:40:15;98503.91;;;22.26;61.56
11912;BME280;6016;41.928;25.556;2022-11-20T11:42:42;98503.53;;;22.22;62.02
11912;BME280;6016;41.928;25.556;2022-11-20T11:45:14;98459.56;;;21.92;61.83
11912;BME280;6016;41.928;25.556;2022-11-20T11:47:45;98461.53;;;21.85;62.19
11912;BME280;6016;41.928;25.556;2022-11-20T11:50:20;98480.94;;;21.87;61.75
11912;BME280;6016;41.928;25.556;2022-11-20T11:52:56;98507.13;;;22.04;61.76
11912;BME280;6016;41.928;25.556;2022-11-20T11:55:29;98492.41;;;22.06;60.98
11912;BME280;6016;41.928;25.556;2022-11-20T11:58:08;98466.94;;;21.97;61.62
11912;BME280;6016;41.928;25.556;2022-11-20T12:00:37;98496.31;;;22.23;60.62
11912;BME280;6016;41.928;25.556;2022-11-20T12:03:12;98453.19;;;22.05;60.18
11912;BME280;6016;41.928;25.556;2022-11-20T12:05:44;98490.00;;;22.17;59.96
11912;BME280;6016;41.928;25.556;2022-11-20T12:08:18;98505.09;;;22.42;60.56
11912;BME280;6016;41.928;25.556;2022-11-20T12:10:53;98525.34;;;22.56;59.45
11912;BME280;6016;41.928;25.556;2022-11-20T12:13:34;98509.19;;;22.44;60.25
11912;BME280;6016;41.928;25.556;2022-11-20T12:16:04;98512.22;;;22.36;60.67
11912;BME280;6016;41.928;25.556;2022-11-20T12:18:34;98502.25;;;22.37;60.26
11912;BME280;6016;41.928;25.556;2022-11-20T12:21:12;98501.81;;;22.40;60.43
11912;BME280;6016;41.928;25.556;2022-11-20T12:24:05;98493.25;;;22.31;59.21
11912;BME280;6016;41.928;25.556;2022-11-20T12:26:49;98298.97;;;21.04;60.16
11912;BME280;6016;41.928;25.556;2022-11-20T12:29:30;98465.28;;;21.84;60.19
11912;BME280;6016;41.928;25.556;2022-11-20T12:32:30;98474.31;;;22.02;60.74
11912;BME280;6016;41.928;25.556;2022-11-20T12:35:02;98505.16;;;22.11;60.36
11912;BME280;6016;41.928;25.556;2022-11-20T12:37:39;98500.38;;;22.13;61.23
11912;BME280;6016;41.928;25.556;2022-11-20T12:40:27;98494.69;;;22.33;60.49
11912;BME280;6016;41.928;25.556;2022-11-20T12:43:02;98455.16;;;22.10;59.95
11912;BME280;6016;41.928;25.556;2022-11-20T12:46:01;97917.50;;;18.42;59.65
11912;BME280;6016;41.928;25.556;2022-11-20T12:48:42;98483.19;;;22.14;60.00
11912;BME280;6016;41.928;25.556;2022-11-20T12:51:23;98491.25;;;22.14;60.82
11912;BME280;6016;41.928;25.556;2022-11-20T12:54:04;98494.72;;;22.03;60.30
11912;BME280;6016;41.928;25.556;2022-11-20T12:56:41;98469.03;;;21.95;60.46
11912;BME280;6016;41.928;25.556;2022-11-20T12:59:30;98496.72;;;22.08;59.93
11912;BME280;6016;41.928;25.556;2022-11-20T13:02:13;98491.94;;;21.98;60.44
11912;BME280;6016;41.928;25.556;2022-11-20T13:05:04;98463.59;;;21.71;61.14
11912;BME280;6016;41.928;25.556;2022-11-20T13:07:35;98491.72;;;22.11;60.43
11912;BME280;6016;41.928;25.556;2022-11-20T13:10:13;98412.59;;;21.71;60.89
11912;BME280;6016;41.928;25.556;2022-11-20T13:12:45;98480.50;;;22.14;60.11
11912;BME280;6016;41.928;25.556;2022-11-20T13:15:28;98471.88;;;22.00;61.11